createdAt,value
2023-05-09T00:00:27.403Z,43.13
2023-05-09T00:01:27.323Z,43.12
2023-05-09T00:02:27.438Z,43.12
2023-05-09T00:03:27.323Z,43.09
2023-05-09T00:04:27.361Z,43.11
2023-05-09T00:05:27.308Z,43.12
2023-05-09T00:06:27.357Z,43.11
2023-05-09T00:07:27.328Z,43.10
2023-05-09T00:08:27.314Z,43.11
2023-05-09T00:09:27.318Z,43.08
2023-05-09T00:10:27.390Z,43.08
2023-05-09T00:11:27.301Z,43.07
2023-05-09T00:12:27.300Z,43.06
2023-05-09T00:13:27.353Z,43.06
2023-05-09T00:14:27.317Z,43.06
2023-05-09T00:15:27.297Z,43.09
2023-05-09T00:16:27.320Z,43.06
2023-05-09T00:17:27.359Z,43.04
2023-05-09T00:18:27.303Z,43.08
2023-05-09T00:19:27.414Z,43.08
2023-05-09T00:20:27.314Z,43.06
2023-05-09T00:21:27.328Z,43.05
2023-05-09T00:22:27.387Z,43.06
2023-05-09T00:23:27.324Z,43.04
2023-05-09T00:24:27.325Z,43.03
2023-05-09T00:25:27.336Z,43.04
2023-05-09T00:26:27.436Z,43.06
2023-05-09T00:27:27.361Z,43.03
2023-05-09T00:28:27.341Z,43.03
2023-05-09T00:29:27.348Z,43.01
2023-05-09T00:30:27.357Z,43.00
2023-05-09T00:31:27.376Z,43.02
2023-05-09T00:32:27.344Z,43.01
2023-05-09T00:33:27.335Z,43.01
2023-05-09T00:34:27.348Z,43.01
2023-05-09T00:35:27.320Z,42.99
2023-05-09T00:36:27.303Z,43.01
2023-05-09T00:37:27.327Z,43.01
2023-05-09T00:38:27.364Z,43.00
2023-05-09T00:39:27.377Z,42.99
2023-05-09T00:40:27.342Z,42.98
2023-05-09T00:41:27.366Z,43.00
2023-05-09T00:42:27.470Z,42.98
2023-05-09T00:43:27.396Z,42.99
2023-05-09T00:44:27.378Z,42.96
2023-05-09T00:45:27.428Z,42.97
2023-05-09T00:46:27.491Z,42.95
2023-05-09T00:47:27.442Z,42.96
2023-05-09T00:48:27.407Z,42.94
2023-05-09T00:49:27.415Z,42.94
2023-05-09T00:50:27.407Z,42.95
2023-05-09T00:51:27.425Z,42.92
2023-05-09T00:52:27.424Z,42.95
2023-05-09T00:53:27.462Z,42.92
2023-05-09T00:54:27.376Z,42.92
2023-05-09T00:55:27.408Z,42.93
2023-05-09T00:56:27.414Z,42.93
2023-05-09T00:57:27.425Z,42.91
2023-05-09T00:58:27.666Z,42.91
2023-05-09T00:59:27.470Z,42.91
2023-05-09T01:00:27.446Z,42.91
2023-05-09T01:01:27.496Z,42.91
2023-05-09T01:02:27.530Z,42.92
2023-05-09T01:03:27.557Z,42.90
2023-05-09T01:04:27.487Z,42.90
2023-05-09T01:05:27.463Z,42.90
2023-05-09T01:06:27.458Z,42.87
2023-05-09T01:07:27.461Z,42.89
2023-05-09T01:08:27.486Z,42.88
2023-05-09T01:09:27.520Z,42.87
2023-05-09T01:10:27.514Z,42.86
2023-05-09T01:11:27.518Z,42.85
2023-05-09T01:12:27.533Z,42.88
2023-05-09T01:13:27.588Z,42.86
2023-05-09T01:14:27.634Z,42.85
2023-05-09T01:15:27.556Z,42.87
2023-05-09T01:16:27.694Z,42.84
2023-05-09T01:17:27.602Z,42.83
2023-05-09T01:18:27.567Z,42.85
2023-05-09T01:19:27.541Z,42.81
2023-05-09T01:20:27.586Z,42.82
2023-05-09T01:21:27.598Z,42.81
2023-05-09T01:22:27.671Z,42.83
2023-05-09T01:23:27.623Z,42.83
2023-05-09T01:24:27.653Z,42.82
2023-05-09T01:25:27.681Z,42.82
2023-05-09T01:26:27.665Z,42.84
2023-05-09T01:27:27.704Z,42.82
2023-05-09T01:28:27.731Z,42.83
2023-05-09T01:29:27.726Z,42.81
2023-05-09T01:30:27.817Z,42.83
2023-05-09T01:31:27.845Z,42.80
2023-05-09T01:32:27.772Z,42.82
2023-05-09T01:33:27.782Z,42.82
2023-05-09T01:34:27.871Z,42.80
2023-05-09T01:35:27.776Z,42.80
2023-05-09T01:36:27.837Z,42.79
2023-05-09T01:37:27.842Z,42.79
2023-05-09T01:38:27.812Z,42.79
2023-05-09T01:39:27.810Z,42.77
2023-05-09T01:40:27.824Z,42.78
2023-05-09T01:41:27.841Z,42.77
2023-05-09T01:42:27.884Z,42.78
2023-05-09T01:43:27.946Z,42.76
2023-05-09T01:44:27.922Z,42.77
2023-05-09T01:45:27.955Z,42.76
2023-05-09T01:46:28.112Z,42.75
2023-05-09T01:47:28.050Z,42.76
2023-05-09T01:48:28.059Z,42.73
2023-05-09T01:49:28.070Z,42.75
2023-05-09T01:50:29.023Z,42.73
2023-05-09T01:51:28.133Z,42.74
2023-05-09T01:52:28.177Z,42.74
2023-05-09T01:53:28.187Z,42.72
2023-05-09T01:54:28.189Z,42.72
2023-05-09T01:55:28.224Z,42.69
2023-05-09T01:56:28.248Z,42.73
2023-05-09T01:57:28.312Z,42.72
2023-05-09T01:58:28.303Z,42.71
2023-05-09T01:59:28.394Z,42.73
2023-05-09T02:00:28.392Z,42.71
2023-05-09T02:01:28.405Z,42.71
2023-05-09T02:02:28.597Z,42.69
2023-05-09T02:03:28.469Z,42.70
2023-05-09T02:04:28.520Z,42.71
2023-05-09T02:05:28.528Z,42.70
2023-05-09T02:06:28.545Z,42.69
2023-05-09T02:07:28.571Z,42.68
2023-05-09T02:08:28.995Z,42.69
2023-05-09T02:09:28.682Z,42.69
2023-05-09T02:10:28.633Z,42.68
2023-05-09T02:11:28.618Z,42.69
2023-05-09T02:12:28.671Z,42.70
2023-05-09T02:13:28.709Z,42.69
2023-05-09T02:14:28.734Z,42.69
2023-05-09T02:15:28.767Z,42.68
2023-05-09T02:16:28.816Z,42.66
2023-05-09T02:17:28.867Z,42.67
2023-05-09T02:18:28.917Z,42.68
2023-05-09T02:19:28.887Z,42.67
2023-05-09T02:20:28.854Z,42.64
2023-05-09T02:21:29.296Z,42.65
2023-05-09T02:22:28.845Z,42.64
2023-05-09T02:23:28.888Z,42.64
2023-05-09T02:24:28.846Z,42.63
2023-05-09T02:25:28.850Z,42.67
2023-05-09T02:26:28.923Z,42.63
2023-05-09T02:27:28.869Z,42.65
2023-05-09T02:28:28.854Z,42.62
2023-05-09T02:29:28.853Z,42.66
2023-05-09T02:30:28.862Z,42.62
2023-05-09T02:31:28.897Z,42.61
2023-05-09T02:32:28.884Z,42.62
2023-05-09T02:33:28.860Z,42.65
2023-05-09T02:34:28.944Z,42.62
2023-05-09T02:35:28.861Z,42.61
2023-05-09T02:36:28.833Z,42.64
2023-05-09T02:37:28.860Z,42.64
2023-05-09T02:38:28.866Z,42.60
2023-05-09T02:39:28.861Z,42.60
2023-05-09T02:40:28.901Z,42.64
2023-05-09T02:41:28.840Z,42.62
2023-05-09T02:42:28.854Z,42.61
2023-05-09T02:43:28.859Z,42.59
2023-05-09T02:44:28.860Z,42.61
2023-05-09T02:45:28.860Z,42.60
2023-05-09T02:46:28.990Z,42.57
2023-05-09T02:47:28.927Z,42.58
2023-05-09T02:48:28.880Z,42.59
2023-05-09T02:49:32.402Z,42.60
2023-05-09T02:50:28.981Z,42.60
2023-05-09T02:51:28.900Z,42.58
2023-05-09T02:52:28.909Z,42.60
2023-05-09T02:53:28.874Z,42.60
2023-05-09T02:54:28.843Z,42.58
2023-05-09T02:55:28.862Z,42.59
2023-05-09T02:56:28.860Z,42.58
2023-05-09T02:57:28.830Z,42.56
2023-05-09T02:58:28.900Z,42.55
2023-05-09T02:59:28.810Z,42.56
2023-05-09T03:00:28.819Z,42.57
2023-05-09T03:01:28.861Z,42.56
2023-05-09T03:02:28.835Z,42.58
2023-05-09T03:03:28.938Z,42.55
2023-05-09T03:04:28.810Z,42.56
2023-05-09T03:05:28.810Z,42.54
2023-05-09T03:06:28.881Z,42.55
2023-05-09T03:07:28.751Z,42.55
2023-05-09T03:08:28.745Z,42.54
2023-05-09T03:09:28.769Z,42.53
2023-05-09T03:10:28.746Z,42.53
2023-05-09T03:11:28.747Z,42.52
2023-05-09T03:12:28.733Z,42.49
2023-05-09T03:13:28.728Z,42.51
2023-05-09T03:14:28.728Z,42.51
2023-05-09T03:15:28.708Z,42.49
2023-05-09T03:16:28.738Z,42.49
2023-05-09T03:17:28.813Z,42.52
2023-05-09T03:18:28.691Z,42.49
2023-05-09T03:19:28.679Z,42.48
2023-05-09T03:20:28.670Z,42.48
2023-05-09T03:21:28.645Z,42.50
2023-05-09T03:22:28.772Z,42.47
2023-05-09T03:23:28.652Z,42.48
2023-05-09T03:24:28.646Z,42.50
2023-05-09T03:25:28.655Z,42.46
2023-05-09T03:26:28.697Z,42.45
2023-05-09T03:27:28.657Z,42.47
2023-05-09T03:28:28.666Z,42.48
2023-05-09T03:29:28.666Z,42.45
2023-05-09T03:30:28.635Z,42.47
2023-05-09T03:31:28.654Z,42.45
2023-05-09T03:32:28.628Z,42.42
2023-05-09T03:33:28.614Z,42.45
2023-05-09T03:34:28.596Z,42.44
2023-05-09T03:35:28.574Z,42.45
2023-05-09T03:36:28.558Z,42.46
2023-05-09T03:37:28.549Z,42.44
2023-05-09T03:38:28.660Z,42.46
2023-05-09T03:39:28.537Z,42.44
2023-05-09T03:40:28.547Z,42.44
2023-05-09T03:41:28.534Z,42.44
2023-05-09T03:42:28.505Z,42.45
2023-05-09T03:43:28.615Z,42.43
2023-05-09T03:44:28.508Z,42.44
2023-05-09T03:45:28.496Z,42.41
2023-05-09T03:46:28.636Z,42.42
2023-05-09T03:47:28.522Z,42.43
2023-05-09T03:48:28.537Z,42.41
2023-05-09T03:49:28.489Z,42.42
2023-05-09T03:50:28.489Z,42.40
2023-05-09T03:51:28.465Z,42.39
2023-05-09T03:52:28.549Z,42.40
2023-05-09T03:53:28.472Z,42.39
2023-05-09T03:54:28.530Z,42.41
2023-05-09T03:55:28.445Z,42.38
2023-05-09T03:56:28.438Z,42.41
2023-05-09T03:57:28.427Z,42.42
2023-05-09T03:58:28.430Z,42.38
2023-05-09T03:59:28.424Z,42.40
2023-05-09T04:00:28.416Z,42.39
2023-05-09T04:01:28.395Z,42.39
2023-05-09T04:02:28.472Z,42.38
2023-05-09T04:03:28.580Z,42.39
2023-05-09T04:04:28.452Z,42.36
2023-05-09T04:05:28.350Z,42.39
2023-05-09T04:06:28.391Z,42.37
2023-05-09T04:07:28.360Z,42.37
2023-05-09T04:08:28.368Z,42.37
2023-05-09T04:09:28.334Z,42.39
2023-05-09T04:10:28.448Z,42.37
2023-05-09T04:11:28.354Z,42.37
2023-05-09T04:12:28.337Z,42.38
2023-05-09T04:13:28.453Z,42.39
2023-05-09T04:14:28.325Z,42.34
2023-05-09T04:15:28.385Z,42.33
2023-05-09T04:16:28.399Z,42.32
2023-05-09T04:17:28.330Z,42.35
2023-05-09T04:18:28.283Z,42.34
2023-05-09T04:19:28.295Z,42.32
2023-05-09T04:20:28.271Z,42.32
2023-05-09T04:21:28.296Z,42.34
2023-05-09T04:22:28.253Z,42.34
2023-05-09T04:23:28.252Z,42.31
2023-05-09T04:24:28.230Z,42.35
2023-05-09T04:25:28.233Z,42.33
2023-05-09T04:26:29.134Z,42.29
2023-05-09T04:27:28.228Z,42.34
2023-05-09T04:28:28.225Z,42.31
2023-05-09T04:29:28.223Z,42.32
2023-05-09T04:30:28.208Z,42.33
2023-05-09T04:31:28.325Z,42.30
2023-05-09T04:32:28.266Z,42.31
2023-05-09T04:33:28.223Z,42.30
2023-05-09T04:34:28.179Z,42.32
2023-05-09T04:35:28.187Z,42.31
2023-05-09T04:36:28.165Z,42.29
2023-05-09T04:37:28.141Z,42.27
2023-05-09T04:38:28.596Z,42.30
2023-05-09T04:39:28.156Z,42.28
2023-05-09T04:40:28.164Z,42.29
2023-05-09T04:41:28.131Z,42.29
2023-05-09T04:42:28.230Z,42.27
2023-05-09T04:43:29.104Z,42.28
2023-05-09T04:44:28.112Z,42.26
2023-05-09T04:45:28.118Z,42.26
2023-05-09T04:46:28.140Z,42.26
2023-05-09T04:47:28.127Z,42.27
2023-05-09T04:48:28.115Z,42.25
2023-05-09T04:49:28.135Z,42.25
2023-05-09T04:50:28.095Z,42.25
2023-05-09T04:51:28.079Z,42.29
2023-05-09T04:52:28.061Z,42.27
2023-05-09T04:53:28.083Z,42.26
2023-05-09T04:54:28.045Z,42.26
2023-05-09T04:55:28.062Z,42.26
2023-05-09T04:56:28.064Z,42.26
2023-05-09T04:57:28.066Z,42.25
2023-05-09T04:58:28.138Z,42.23
2023-05-09T04:59:28.025Z,42.25
2023-05-09T05:00:28.046Z,42.24
2023-05-09T05:01:28.057Z,42.23
2023-05-09T05:02:28.089Z,42.23
2023-05-09T05:03:28.077Z,42.22
2023-05-09T05:04:28.039Z,42.22
2023-05-09T05:05:28.189Z,42.22
2023-05-09T05:06:27.973Z,42.22
2023-05-09T05:07:27.964Z,42.22
2023-05-09T05:08:27.984Z,42.19
2023-05-09T05:09:28.009Z,42.23
2023-05-09T05:10:27.968Z,42.20
2023-05-09T05:11:27.935Z,42.19
2023-05-09T05:12:28.653Z,42.20
2023-05-09T05:13:28.023Z,42.21
2023-05-09T05:14:28.035Z,42.17
2023-05-09T05:15:27.909Z,42.19
2023-05-09T05:16:27.915Z,42.16
2023-05-09T05:17:27.903Z,42.19
2023-05-09T05:18:27.915Z,42.20
2023-05-09T05:19:27.867Z,42.19
2023-05-09T05:20:27.866Z,42.18
2023-05-09T05:21:27.879Z,42.16
2023-05-09T05:22:27.880Z,42.14
2023-05-09T05:23:27.884Z,42.15
2023-05-09T05:24:27.838Z,42.14
2023-05-09T05:25:27.856Z,42.13
2023-05-09T05:26:27.924Z,42.17
2023-05-09T05:27:27.847Z,42.16
2023-05-09T05:28:27.851Z,42.13
2023-05-09T05:29:27.882Z,42.14
2023-05-09T05:30:27.888Z,42.14
2023-05-09T05:31:27.838Z,42.14
2023-05-09T05:32:27.795Z,42.13
2023-05-09T05:33:27.826Z,42.14
2023-05-09T05:34:27.811Z,42.12
2023-05-09T05:35:27.804Z,42.23
2023-05-09T05:36:27.788Z,42.19
2023-05-09T05:37:27.750Z,42.23
2023-05-09T05:38:27.780Z,42.20
2023-05-09T05:39:27.784Z,42.29
2023-05-09T05:40:27.759Z,42.35
2023-05-09T05:41:27.726Z,42.45
2023-05-09T05:42:28.582Z,42.50
2023-05-09T05:43:27.702Z,42.78
2023-05-09T05:44:27.716Z,43.28
2023-05-09T05:45:27.728Z,43.35
2023-05-09T05:46:27.823Z,43.37
2023-05-09T05:47:27.720Z,43.34
2023-05-09T05:48:27.696Z,44.12
2023-05-09T05:49:27.709Z,44.57
2023-05-09T05:50:27.669Z,44.74
2023-05-09T05:51:27.754Z,45.09
2023-05-09T05:52:27.674Z,45.31
2023-05-09T05:53:28.551Z,45.73
2023-05-09T05:54:27.660Z,45.69
2023-05-09T05:55:27.656Z,45.84
2023-05-09T05:56:27.630Z,45.74
2023-05-09T05:57:27.618Z,45.52
2023-05-09T05:58:27.615Z,45.47
2023-05-09T05:59:27.637Z,45.61
2023-05-09T06:00:27.661Z,46.19
2023-05-09T06:01:27.620Z,46.48
2023-05-09T06:02:27.750Z,46.38
2023-05-09T06:03:27.691Z,46.70
2023-05-09T06:04:27.626Z,46.64
2023-05-09T06:05:27.587Z,46.67
2023-05-09T06:06:27.586Z,46.66
2023-05-09T06:07:27.592Z,46.67
2023-05-09T06:08:27.571Z,46.70
2023-05-09T06:09:27.593Z,46.72
2023-05-09T06:10:27.576Z,46.77
2023-05-09T06:11:27.643Z,46.81
2023-05-09T06:12:28.197Z,46.81
2023-05-09T06:13:27.871Z,46.92
2023-05-09T06:14:28.112Z,47.02
2023-05-09T06:15:27.845Z,47.03
2023-05-09T06:16:27.952Z,47.11
2023-05-09T06:17:27.955Z,47.18
2023-05-09T06:18:28.108Z,47.27
2023-05-09T06:19:28.092Z,47.33
2023-05-09T06:20:28.139Z,47.35
2023-05-09T06:21:28.155Z,47.41
2023-05-09T06:22:28.183Z,47.60
2023-05-09T06:23:28.219Z,47.67
2023-05-09T06:24:35.938Z,48.59
2023-05-09T06:25:29.302Z,47.91
2023-05-09T06:26:28.254Z,47.88
2023-05-09T06:27:28.233Z,47.81
2023-05-09T06:28:28.235Z,47.93
2023-05-09T06:29:28.222Z,47.89
2023-05-09T06:30:28.234Z,47.95
2023-05-09T06:31:28.245Z,47.98
2023-05-09T06:32:28.229Z,48.21
2023-05-09T06:33:28.210Z,48.14
2023-05-09T06:34:28.300Z,48.14
2023-05-09T06:35:28.168Z,48.25
2023-05-09T06:36:28.170Z,48.33
2023-05-09T06:37:28.203Z,48.38
2023-05-09T06:38:28.185Z,48.55
2023-05-09T06:39:28.229Z,48.40
2023-05-09T06:40:28.326Z,48.52
2023-05-09T06:41:28.299Z,48.47
2023-05-09T06:42:28.331Z,48.46
2023-05-09T06:43:29.115Z,48.48
2023-05-09T06:44:28.374Z,48.58
2023-05-09T06:45:28.415Z,48.63
2023-05-09T06:46:28.467Z,48.64
2023-05-09T06:47:28.453Z,48.64
2023-05-09T06:48:28.458Z,48.63
2023-05-09T06:49:28.637Z,48.56
2023-05-09T06:50:29.776Z,48.54
2023-05-09T06:51:28.545Z,48.42
2023-05-09T06:52:28.633Z,48.38
2023-05-09T06:53:28.616Z,48.25
2023-05-09T06:54:29.132Z,48.25
2023-05-09T06:55:28.725Z,48.24
2023-05-09T06:56:28.760Z,48.25
2023-05-09T06:57:28.802Z,48.17
2023-05-09T06:58:28.854Z,48.18
2023-05-09T06:59:28.929Z,48.19
2023-05-09T07:00:28.929Z,48.30
2023-05-09T07:01:29.078Z,48.21
2023-05-09T07:02:29.061Z,48.21
2023-05-09T07:03:29.111Z,48.21
2023-05-09T07:04:29.147Z,48.17
2023-05-09T07:05:29.239Z,48.17
2023-05-09T07:06:29.316Z,48.19
2023-05-09T07:07:29.282Z,48.24
2023-05-09T07:08:29.303Z,48.24
2023-05-09T07:09:29.356Z,47.16
2023-05-09T07:10:29.381Z,46.70
2023-05-09T07:11:29.422Z,46.33
2023-05-09T07:12:29.483Z,46.34
2023-05-09T07:13:29.528Z,46.21
2023-05-09T07:14:29.592Z,46.18
2023-05-09T07:15:41.118Z,46.32
2023-05-09T07:16:30.695Z,46.62
2023-05-09T07:17:29.665Z,46.13
2023-05-09T07:18:29.651Z,45.49
2023-05-09T07:19:29.621Z,45.13
2023-05-09T07:20:29.608Z,44.99
2023-05-09T07:21:29.587Z,44.83
2023-05-09T07:22:31.788Z,44.76
2023-05-09T07:23:29.589Z,45.46
2023-05-09T07:24:29.586Z,46.12
2023-05-09T07:25:29.548Z,46.35
2023-05-09T07:26:29.571Z,46.33
2023-05-09T07:27:29.544Z,45.75
2023-05-09T07:28:29.546Z,45.50
2023-05-09T07:29:29.546Z,45.17
2023-05-09T07:30:29.556Z,45.38
2023-05-09T07:31:29.588Z,45.86
2023-05-09T07:32:29.582Z,46.02
2023-05-09T07:33:29.493Z,46.17
2023-05-09T07:34:29.530Z,46.34
2023-05-09T07:35:29.520Z,46.39
2023-05-09T07:36:29.489Z,46.38
2023-05-09T07:37:29.526Z,46.41
2023-05-09T07:38:29.507Z,46.43
2023-05-09T07:39:29.480Z,46.46
2023-05-09T07:40:29.496Z,46.43
2023-05-09T07:41:29.470Z,46.49
2023-05-09T07:42:29.514Z,46.46
2023-05-09T07:43:29.433Z,46.56
2023-05-09T07:44:29.648Z,46.62
2023-05-09T07:45:29.450Z,46.70
2023-05-09T07:46:29.506Z,46.70
2023-05-09T07:47:29.446Z,46.78
2023-05-09T07:48:29.390Z,46.86
2023-05-09T07:49:29.403Z,46.93
2023-05-09T07:50:29.403Z,46.88
2023-05-09T07:51:29.383Z,46.90
2023-05-09T07:52:29.378Z,46.94
2023-05-09T07:53:29.379Z,46.98
2023-05-09T07:54:29.478Z,47.01
2023-05-09T07:55:29.367Z,47.06
2023-05-09T07:56:29.363Z,47.08
2023-05-09T07:57:29.338Z,47.12
2023-05-09T07:58:29.463Z,47.16
2023-05-09T07:59:29.350Z,47.19
2023-05-09T08:00:29.313Z,47.27
2023-05-09T08:01:29.358Z,47.35
2023-05-09T08:02:29.450Z,47.31
2023-05-09T08:03:29.439Z,47.37
2023-05-09T08:04:29.404Z,47.37
2023-05-09T08:05:29.275Z,47.43
2023-05-09T08:06:29.312Z,47.48
2023-05-09T08:07:29.296Z,47.48
2023-05-09T08:08:29.308Z,47.50
2023-05-09T08:09:29.274Z,47.57
2023-05-09T08:10:29.357Z,47.54
2023-05-09T08:11:29.252Z,47.61
2023-05-09T08:12:29.288Z,47.65
2023-05-09T08:13:29.297Z,47.71
2023-05-09T08:14:29.312Z,47.71
2023-05-09T08:15:29.326Z,47.77
2023-05-09T08:16:29.452Z,47.76
2023-05-09T08:17:29.455Z,47.80
2023-05-09T08:18:29.371Z,47.88
2023-05-09T08:19:29.402Z,47.89
2023-05-09T08:20:29.359Z,47.96
2023-05-09T08:21:29.401Z,48.03
2023-05-09T08:22:29.433Z,48.05
2023-05-09T08:23:29.403Z,48.11
2023-05-09T08:24:29.445Z,48.15
2023-05-09T08:25:29.437Z,48.17
2023-05-09T08:26:29.448Z,48.22
2023-05-09T08:27:29.463Z,48.25
2023-05-09T08:28:29.439Z,48.29
2023-05-09T08:29:29.453Z,48.31
2023-05-09T08:30:29.455Z,48.34
2023-05-09T08:31:29.528Z,48.36
2023-05-09T08:32:29.504Z,48.29
